sensor_id;sensor_type;location;lat;lon;timestamp;temperature;humidity
70051;SHT30;57391;51.306;22.680;2022-09-13T00:01:00;11.90;85.47
70051;SHT30;57391;51.306;22.680;2022-09-13T00:03:35;11.90;85.39
70051;SHT30;57391;51.306;22.680;2022-09-13T00:06:07;11.88;85.32
70051;SHT30;57391;51.306;22.680;2022-09-13T00:08:38;11.86;85.31
70051;SHT30;57391;51.306;22.680;2022-09-13T00:11:06;11.86;85.39
70051;SHT30;57391;51.306;22.680;2022-09-13T00:13:39;11.84;85.27
70051;SHT30;57391;51.306;22.680;2022-09-13T00:16:09;11.81;85.02
70051;SHT30;57391;51.306;22.680;2022-09-13T00:18:39;11.78;84.92
70051;SHT30;57391;51.306;22.680;2022-09-13T00:21:08;11.74;84.73
70051;SHT30;57391;51.306;22.680;2022-09-13T00:23:39;11.71;84.61
70051;SHT30;57391;51.306;22.680;2022-09-13T00:26:16;11.66;84.40
70051;SHT30;57391;51.306;22.680;2022-09-13T00:28:57;11.60;84.40
70051;SHT30;57391;51.306;22.680;2022-09-13T00:31:25;11.57;84.32
70051;SHT30;57391;51.306;22.680;2022-09-13T00:33:54;11.53;84.06
70051;SHT30;57391;51.306;22.680;2022-09-13T00:36:24;11.48;83.80
70051;SHT30;57391;51.306;22.680;2022-09-13T00:38:51;11.41;83.64
70051;SHT30;57391;51.306;22.680;2022-09-13T00:41:18;11.33;83.47
70051;SHT30;57391;51.306;22.680;2022-09-13T00:43:53;11.27;83.29
70051;SHT30;57391;51.306;22.680;2022-09-13T00:46:39;11.20;83.31
70051;SHT30;57391;51.306;22.680;2022-09-13T00:51:46;11.06;83.15
70051;SHT30;57391;51.306;22.680;2022-09-13T00:54:21;11.00;83.39
70051;SHT30;57391;51.306;22.680;2022-09-13T00:56:55;10.95;83.71
70051;SHT30;57391;51.306;22.680;2022-09-13T01:02:26;10.90;84.27
70051;SHT30;57391;51.306;22.680;2022-09-13T01:04:54;10.88;84.64
70051;SHT30;57391;51.306;22.680;2022-09-13T01:07:21;10.86;84.93
70051;SHT30;57391;51.306;22.680;2022-09-13T01:09:49;10.88;85.39
70051;SHT30;57391;51.306;22.680;2022-09-13T01:15:09;10.93;86.08
70051;SHT30;57391;51.306;22.680;2022-09-13T01:17:37;10.95;86.35
70051;SHT30;57391;51.306;22.680;2022-09-13T01:20:05;10.98;86.52
70051;SHT30;57391;51.306;22.680;2022-09-13T01:25:40;11.01;86.60
70051;SHT30;57391;51.306;22.680;2022-09-13T01:31:36;11.03;86.69
70051;SHT30;57391;51.306;22.680;2022-09-13T01:34:15;11.03;86.71
70051;SHT30;57391;51.306;22.680;2022-09-13T01:45:50;11.05;86.83
70051;SHT30;57391;51.306;22.680;2022-09-13T01:52:01;11.08;86.90
70051;SHT30;57391;51.306;22.680;2022-09-13T01:57:40;11.12;86.96
70051;SHT30;57391;51.306;22.680;2022-09-13T02:00:20;11.13;86.92
70051;SHT30;57391;51.306;22.680;2022-09-13T02:02:48;11.14;86.93
70051;SHT30;57391;51.306;22.680;2022-09-13T02:08:06;11.18;86.99
70051;SHT30;57391;51.306;22.680;2022-09-13T02:10:41;11.20;86.97
70051;SHT30;57391;51.306;22.680;2022-09-13T02:13:17;11.22;86.96
70051;SHT30;57391;51.306;22.680;2022-09-13T02:15:53;11.24;86.92
70051;SHT30;57391;51.306;22.680;2022-09-13T02:18:31;11.26;86.83
70051;SHT30;57391;51.306;22.680;2022-09-13T02:21:27;11.26;86.80
70051;SHT30;57391;51.306;22.680;2022-09-13T02:24:02;11.25;86.72
70051;SHT30;57391;51.306;22.680;2022-09-13T02:26:34;11.25;86.60
70051;SHT30;57391;51.306;22.680;2022-09-13T02:29:11;11.23;86.44
70051;SHT30;57391;51.306;22.680;2022-09-13T02:34:41;11.18;86.25
70051;SHT30;57391;51.306;22.680;2022-09-13T02:37:19;11.15;86.23
70051;SHT30;57391;51.306;22.680;2022-09-13T02:39:52;11.14;86.20
70051;SHT30;57391;51.306;22.680;2022-09-13T02:45:07;11.09;86.13
70051;SHT30;57391;51.306;22.680;2022-09-13T02:47:47;11.04;86.20
70051;SHT30;57391;51.306;22.680;2022-09-13T02:53:37;10.97;86.07
70051;SHT30;57391;51.306;22.680;2022-09-13T02:56:18;10.93;86.11
70051;SHT30;57391;51.306;22.680;2022-09-13T03:01:35;10.85;86.26
70051;SHT30;57391;51.306;22.680;2022-09-13T03:04:06;10.83;86.41
70051;SHT30;57391;51.306;22.680;2022-09-13T03:06:33;10.81;86.55
70051;SHT30;57391;51.306;22.680;2022-09-13T03:09:01;10.79;86.53
70051;SHT30;57391;51.306;22.680;2022-09-13T03:11:39;10.78;86.60
70051;SHT30;57391;51.306;22.680;2022-09-13T03:23:21;10.71;86.81
70051;SHT30;57391;51.306;22.680;2022-09-13T03:29:04;10.66;86.58
70051;SHT30;57391;51.306;22.680;2022-09-13T03:34:52;10.59;86.21
70051;SHT30;57391;51.306;22.680;2022-09-13T03:37:45;10.53;86.12
70051;SHT30;57391;51.306;22.680;2022-09-13T03:43:42;10.45;86.15
70051;SHT30;57391;51.306;22.680;2022-09-13T03:46:14;10.40;86.21
70051;SHT30;57391;51.306;22.680;2022-09-13T03:48:51;10.36;86.24
70051;SHT30;57391;51.306;22.680;2022-09-13T03:51:21;10.34;86.30
70051;SHT30;57391;51.306;22.680;2022-09-13T03:53:54;10.34;86.45
70051;SHT30;57391;51.306;22.680;2022-09-13T03:56:27;10.32;86.50
70051;SHT30;57391;51.306;22.680;2022-09-13T03:58:55;10.31;86.49
70051;SHT30;57391;51.306;22.680;2022-09-13T04:01:22;10.29;86.39
70051;SHT30;57391;51.306;22.680;2022-09-13T04:03:51;10.27;86.43
70051;SHT30;57391;51.306;22.680;2022-09-13T04:06:19;10.28;86.47
70051;SHT30;57391;51.306;22.680;2022-09-13T04:08:46;10.28;86.57
70051;SHT30;57391;51.306;22.680;2022-09-13T04:11:13;10.25;86.63
70051;SHT30;57391;51.306;22.680;2022-09-13T04:13:40;10.22;86.77
70051;SHT30;57391;51.306;22.680;2022-09-13T04:16:07;10.21;86.79
70051;SHT30;57391;51.306;22.680;2022-09-13T04:18:34;10.19;86.78
70051;SHT30;57391;51.306;22.680;2022-09-13T04:21:02;10.20;86.83
70051;SHT30;57391;51.306;22.680;2022-09-13T04:23:30;10.20;86.83
70051;SHT30;57391;51.306;22.680;2022-09-13T04:26:03;10.20;86.84
70051;SHT30;57391;51.306;22.680;2022-09-13T04:28:31;10.20;86.83
70051;SHT30;57391;51.306;22.680;2022-09-13T04:30:58;10.19;86.86
70051;SHT30;57391;51.306;22.680;2022-09-13T04:33:25;10.18;86.64
70051;SHT30;57391;51.306;22.680;2022-09-13T04:35:53;10.17;86.62
70051;SHT30;57391;51.306;22.680;2022-09-13T04:38:25;10.19;86.80
70051;SHT30;57391;51.306;22.680;2022-09-13T04:40:53;10.21;87.10
70051;SHT30;57391;51.306;22.680;2022-09-13T04:43:22;10.25;87.08
70051;SHT30;57391;51.306;22.680;2022-09-13T04:45:50;10.29;87.11
70051;SHT30;57391;51.306;22.680;2022-09-13T04:48:17;10.32;87.04
70051;SHT30;57391;51.306;22.680;2022-09-13T04:50:44;10.35;87.01
70051;SHT30;57391;51.306;22.680;2022-09-13T04:53:11;10.37;87.13
70051;SHT30;57391;51.306;22.680;2022-09-13T04:55:39;10.42;87.24
70051;SHT30;57391;51.306;22.680;2022-09-13T04:58:06;10.46;87.24
70051;SHT30;57391;51.306;22.680;2022-09-13T05:00:33;10.49;87.17
70051;SHT30;57391;51.306;22.680;2022-09-13T05:03:00;10.52;87.05
70051;SHT30;57391;51.306;22.680;2022-09-13T05:05:28;10.53;87.15
70051;SHT30;57391;51.306;22.680;2022-09-13T05:07:56;10.57;87.34
70051;SHT30;57391;51.306;22.680;2022-09-13T05:10:23;10.61;87.24
70051;SHT30;57391;51.306;22.680;2022-09-13T05:12:51;10.63;87.23
70051;SHT30;57391;51.306;22.680;2022-09-13T05:15:18;10.65;87.27
70051;SHT30;57391;51.306;22.680;2022-09-13T05:17:45;10.68;87.34
70051;SHT30;57391;51.306;22.680;2022-09-13T05:20:12;10.72;87.11
70051;SHT30;57391;51.306;22.680;2022-09-13T05:22:39;10.73;87.16
70051;SHT30;57391;51.306;22.680;2022-09-13T05:25:06;10.75;87.14
70051;SHT30;57391;51.306;22.680;2022-09-13T05:27:34;10.79;87.15
70051;SHT30;57391;51.306;22.680;2022-09-13T05:30:01;10.82;87.13
70051;SHT30;57391;51.306;22.680;2022-09-13T05:32:29;10.87;87.18
70051;SHT30;57391;51.306;22.680;2022-09-13T05:34:57;10.93;87.15
70051;SHT30;57391;51.306;22.680;2022-09-13T05:37:25;10.98;87.07
70051;SHT30;57391;51.306;22.680;2022-09-13T05:39:51;11.02;87.16
70051;SHT30;57391;51.306;22.680;2022-09-13T05:42:18;11.06;87.18
70051;SHT30;57391;51.306;22.680;2022-09-13T05:44:45;11.15;87.27
70051;SHT30;57391;51.306;22.680;2022-09-13T05:47:12;11.20;87.08
70051;SHT30;57391;51.306;22.680;2022-09-13T05:49:39;11.27;87.08
70051;SHT30;57391;51.306;22.680;2022-09-13T05:52:06;11.35;87.20
70051;SHT30;57391;51.306;22.680;2022-09-13T05:54:34;11.42;86.80
70051;SHT30;57391;51.306;22.680;2022-09-13T05:57:02;11.48;86.86
70051;SHT30;57391;51.306;22.680;2022-09-13T05:59:30;11.54;86.76
70051;SHT30;57391;51.306;22.680;2022-09-13T06:01:57;11.59;86.66
70051;SHT30;57391;51.306;22.680;2022-09-13T06:04:25;11.67;86.40
70051;SHT30;57391;51.306;22.680;2022-09-13T06:06:53;11.73;86.37
70051;SHT30;57391;51.306;22.680;2022-09-13T06:09:19;11.78;86.15
70051;SHT30;57391;51.306;22.680;2022-09-13T06:11:46;11.81;85.94
70051;SHT30;57391;51.306;22.680;2022-09-13T06:14:13;11.86;85.85
70051;SHT30;57391;51.306;22.680;2022-09-13T06:16:40;11.91;85.63
70051;SHT30;57391;51.306;22.680;2022-09-13T06:19:08;12.04;85.53
70051;SHT30;57391;51.306;22.680;2022-09-13T06:21:34;12.34;85.24
70051;SHT30;57391;51.306;22.680;2022-09-13T06:24:10;12.44;84.91
70051;SHT30;57391;51.306;22.680;2022-09-13T06:26:37;12.47;84.85
70051;SHT30;57391;51.306;22.680;2022-09-13T06:29:04;12.50;84.56
70051;SHT30;57391;51.306;22.680;2022-09-13T06:31:31;12.58;84.35
70051;SHT30;57391;51.306;22.680;2022-09-13T06:34:00;12.71;84.41
70051;SHT30;57391;51.306;22.680;2022-09-13T06:36:30;12.88;84.10
70051;SHT30;57391;51.306;22.680;2022-09-13T06:38:57;12.98;83.69
70051;SHT30;57391;51.306;22.680;2022-09-13T06:41:27;13.04;83.67
70051;SHT30;57391;51.306;22.680;2022-09-13T06:43:55;13.06;83.24
70051;SHT30;57391;51.306;22.680;2022-09-13T06:46:26;13.06;82.83
70051;SHT30;57391;51.306;22.680;2022-09-13T06:48:59;13.34;82.25
70051;SHT30;57391;51.306;22.680;2022-09-13T06:51:30;13.88;81.42
70051;SHT30;57391;51.306;22.680;2022-09-13T06:53:59;14.36;80.99
70051;SHT30;57391;51.306;22.680;2022-09-13T06:56:28;15.13;79.42
70051;SHT30;57391;51.306;22.680;2022-09-13T06:58:59;15.73;77.93
70051;SHT30;57391;51.306;22.680;2022-09-13T07:01:34;15.95;77.21
70051;SHT30;57391;51.306;22.680;2022-09-13T07:04:04;16.07;76.12
70051;SHT30;57391;51.306;22.680;2022-09-13T07:06:34;16.24;75.27
70051;SHT30;57391;51.306;22.680;2022-09-13T07:09:05;16.48;74.36
70051;SHT30;57391;51.306;22.680;2022-09-13T07:11:38;16.99;72.97
70051;SHT30;57391;51.306;22.680;2022-09-13T07:14:07;17.30;72.05
70051;SHT30;57391;51.306;22.680;2022-09-13T07:16:37;17.79;71.14
70051;SHT30;57391;51.306;22.680;2022-09-13T07:19:05;18.43;68.98
70051;SHT30;57391;51.306;22.680;2022-09-13T07:21:37;19.12;68.01
70051;SHT30;57391;51.306;22.680;2022-09-13T07:24:04;19.61;66.59
70051;SHT30;57391;51.306;22.680;2022-09-13T07:26:32;19.60;65.63
70051;SHT30;57391;51.306;22.680;2022-09-13T07:29:01;19.40;64.90
70051;SHT30;57391;51.306;22.680;2022-09-13T07:31:37;19.34;64.28
70051;SHT30;57391;51.306;22.680;2022-09-13T07:34:10;19.71;64.16
70051;SHT30;57391;51.306;22.680;2022-09-13T07:36:43;20.18;63.77
70051;SHT30;57391;51.306;22.680;2022-09-13T07:39:12;20.52;62.91
70051;SHT30;57391;51.306;22.680;2022-09-13T07:41:41;20.72;61.33
70051;SHT30;57391;51.306;22.680;2022-09-13T07:44:09;20.86;59.85
70051;SHT30;57391;51.306;22.680;2022-09-13T07:46:37;20.90;59.56
70051;SHT30;57391;51.306;22.680;2022-09-13T07:49:07;20.96;59.78
70051;SHT30;57391;51.306;22.680;2022-09-13T07:51:35;21.07;58.81
70051;SHT30;57391;51.306;22.680;2022-09-13T07:54:06;21.28;58.33
70051;SHT30;57391;51.306;22.680;2022-09-13T07:56:38;21.61;57.07
70051;SHT30;57391;51.306;22.680;2022-09-13T07:59:10;21.93;56.53
70051;SHT30;57391;51.306;22.680;2022-09-13T08:01:40;22.25;55.41
70051;SHT30;57391;51.306;22.680;2022-09-13T08:04:10;22.50;54.47
70051;SHT30;57391;51.306;22.680;2022-09-13T08:06:40;22.69;54.08
70051;SHT30;57391;51.306;22.680;2022-09-13T08:09:09;22.89;52.40
70051;SHT30;57391;51.306;22.680;2022-09-13T08:11:40;23.06;51.97
70051;SHT30;57391;51.306;22.680;2022-09-13T08:14:18;23.30;51.00
70051;SHT30;57391;51.306;22.680;2022-09-13T08:16:48;23.48;50.47
70051;SHT30;57391;51.306;22.680;2022-09-13T08:19:17;23.68;50.29
70051;SHT30;57391;51.306;22.680;2022-09-13T08:21:44;23.91;49.87
70051;SHT30;57391;51.306;22.680;2022-09-13T08:24:14;24.08;49.04
70051;SHT30;57391;51.306;22.680;2022-09-13T08:26:44;24.18;48.53
70051;SHT30;57391;51.306;22.680;2022-09-13T08:29:11;24.28;48.55
70051;SHT30;57391;51.306;22.680;2022-09-13T08:31:40;24.39;48.70
70051;SHT30;57391;51.306;22.680;2022-09-13T08:34:11;24.54;47.97
70051;SHT30;57391;51.306;22.680;2022-09-13T08:36:40;24.66;46.97
70051;SHT30;57391;51.306;22.680;2022-09-13T08:39:08;24.62;46.33
70051;SHT30;57391;51.306;22.680;2022-09-13T08:47:20;24.26;46.89
70051;SHT30;57391;51.306;22.680;2022-09-13T08:50:20;24.03;45.61
70051;SHT30;57391;51.306;22.680;2022-09-13T09:12:46;23.99;44.95
70051;SHT30;57391;51.306;22.680;2022-09-13T09:15:24;24.01;44.62
70051;SHT30;57391;51.306;22.680;2022-09-13T09:18:08;24.03;43.74
70051;SHT30;57391;51.306;22.680;2022-09-13T09:20:47;24.11;42.29
70051;SHT30;57391;51.306;22.680;2022-09-13T09:26:24;24.21;43.42
70051;SHT30;57391;51.306;22.680;2022-09-13T09:28:56;24.28;42.99
70051;SHT30;57391;51.306;22.680;2022-09-13T09:39:51;24.38;42.28
70051;SHT30;57391;51.306;22.680;2022-09-13T09:42:21;24.35;42.27
70051;SHT30;57391;51.306;22.680;2022-09-13T09:44:58;24.35;41.84
70051;SHT30;57391;51.306;22.680;2022-09-13T09:47:49;24.32;41.07
70051;SHT30;57391;51.306;22.680;2022-09-13T09:50:23;24.26;40.04
70051;SHT30;57391;51.306;22.680;2022-09-13T09:52:57;24.17;39.00
70051;SHT30;57391;51.306;22.680;2022-09-13T09:55:28;24.07;39.64
70051;SHT30;57391;51.306;22.680;2022-09-13T09:58:14;24.03;42.06
70051;SHT30;57391;51.306;22.680;2022-09-13T10:00:55;24.00;42.27
70051;SHT30;57391;51.306;22.680;2022-09-13T10:03:25;23.94;42.24
70051;SHT30;57391;51.306;22.680;2022-09-13T10:06:05;23.92;42.53
70051;SHT30;57391;51.306;22.680;2022-09-13T10:08:46;23.90;43.05
70051;SHT30;57391;51.306;22.680;2022-09-13T10:14:38;23.83;41.90
70051;SHT30;57391;51.306;22.680;2022-09-13T10:17:15;23.61;42.21
70051;SHT30;57391;51.306;22.680;2022-09-13T10:22:30;23.14;42.89
70051;SHT30;57391;51.306;22.680;2022-09-13T10:25:16;23.14;42.84
70051;SHT30;57391;51.306;22.680;2022-09-13T10:27:52;23.27;42.88
70051;SHT30;57391;51.306;22.680;2022-09-13T10:36:15;23.29;41.92
70051;SHT30;57391;51.306;22.680;2022-09-13T10:39:16;23.43;41.94
70051;SHT30;57391;51.306;22.680;2022-09-13T10:41:56;23.57;42.10
70051;SHT30;57391;51.306;22.680;2022-09-13T10:44:40;23.46;41.41
70051;SHT30;57391;51.306;22.680;2022-09-13T10:47:26;23.18;42.00
70051;SHT30;57391;51.306;22.680;2022-09-13T10:52:55;23.06;42.19
70051;SHT30;57391;51.306;22.680;2022-09-13T10:55:29;23.10;42.68
70051;SHT30;57391;51.306;22.680;2022-09-13T11:00:34;23.27;42.51
70051;SHT30;57391;51.306;22.680;2022-09-13T11:03:28;23.35;42.50
70051;SHT30;57391;51.306;22.680;2022-09-13T11:15:05;23.40;43.13
70051;SHT30;57391;51.306;22.680;2022-09-13T11:23:13;23.21;43.88
70051;SHT30;57391;51.306;22.680;2022-09-13T11:28:59;23.07;42.47
70051;SHT30;57391;51.306;22.680;2022-09-13T11:43:45;23.13;44.05
70051;SHT30;57391;51.306;22.680;2022-09-13T11:49:37;23.17;43.54
70051;SHT30;57391;51.306;22.680;2022-09-13T11:52:18;23.13;42.90
70051;SHT30;57391;51.306;22.680;2022-09-13T11:55:16;23.10;42.73
70051;SHT30;57391;51.306;22.680;2022-09-13T11:57:49;23.09;43.06
70051;SHT30;57391;51.306;22.680;2022-09-13T12:00:57;23.05;44.05
70051;SHT30;57391;51.306;22.680;2022-09-13T12:03:32;23.01;43.92
70051;SHT30;57391;51.306;22.680;2022-09-13T12:06:24;23.02;43.61
70051;SHT30;57391;51.306;22.680;2022-09-13T12:09:06;23.04;44.07
70051;SHT30;57391;51.306;22.680;2022-09-13T12:11:49;23.00;43.39
70051;SHT30;57391;51.306;22.680;2022-09-13T12:14:58;22.95;44.17
70051;SHT30;57391;51.306;22.680;2022-09-13T12:17:38;22.88;43.93
70051;SHT30;57391;51.306;22.680;2022-09-13T12:20:17;22.77;43.49
70051;SHT30;57391;51.306;22.680;2022-09-13T12:23:32;22.73;43.28
70051;SHT30;57391;51.306;22.680;2022-09-13T12:26:20;22.64;44.23
70051;SHT30;57391;51.306;22.680;2022-09-13T12:29:12;22.57;44.95
70051;SHT30;57391;51.306;22.680;2022-09-13T12:31:40;22.53;44.69
70051;SHT30;57391;51.306;22.680;2022-09-13T12:34:08;22.47;44.35
70051;SHT30;57391;51.306;22.680;2022-09-13T12:36:57;22.40;44.36
70051;SHT30;57391;51.306;22.680;2022-09-13T12:40:13;22.26;45.49
70051;SHT30;57391;51.306;22.680;2022-09-13T12:48:40;21.88;45.44
70051;SHT30;57391;51.306;22.680;2022-09-13T12:51:59;21.69;46.16
70051;SHT30;57391;51.306;22.680;2022-09-13T12:57:56;21.47;47.63
70051;SHT30;57391;51.306;22.680;2022-09-13T13:01:14;21.34;47.54
70051;SHT30;57391;51.306;22.680;2022-09-13T13:03:53;21.26;47.74
70051;SHT30;57391;51.306;22.680;2022-09-13T13:09:26;21.09;48.14
70051;SHT30;57391;51.306;22.680;2022-09-13T13:12:11;20.92;47.99
70051;SHT30;57391;51.306;22.680;2022-09-13T13:15:03;20.74;48.03
70051;SHT30;57391;51.306;22.680;2022-09-13T13:17:53;20.60;48.74
70051;SHT30;57391;51.306;22.680;2022-09-13T13:23:21;20.40;49.87
70051;SHT30;57391;51.306;22.680;2022-09-13T13:26:09;20.30;50.15
70051;SHT30;57391;51.306;22.680;2022-09-13T13:33:51;20.01;50.07
70051;SHT30;57391;51.306;22.680;2022-09-13T13:36:50;19.97;50.18
70051;SHT30;57391;51.306;22.680;2022-09-13T13:41:55;19.87;51.16
70051;SHT30;57391;51.306;22.680;2022-09-13T13:46:52;19.83;52.04
70051;SHT30;57391;51.306;22.680;2022-09-13T14:00:46;19.75;52.83
70051;SHT30;57391;51.306;22.680;2022-09-13T14:06:22;19.68;52.96
70051;SHT30;57391;51.306;22.680;2022-09-13T14:11:50;19.57;53.08
70051;SHT30;57391;51.306;22.680;2022-09-13T14:14:54;19.47;53.18
70051;SHT30;57391;51.306;22.680;2022-09-13T14:17:48;19.44;52.87
70051;SHT30;57391;51.306;22.680;2022-09-13T14:20:33;19.39;53.69
70051;SHT30;57391;51.306;22.680;2022-09-13T14:23:18;19.38;54.28
70051;SHT30;57391;51.306;22.680;2022-09-13T14:25:51;19.33;54.45
70051;SHT30;57391;51.306;22.680;2022-09-13T14:28:22;19.31;55.61
70051;SHT30;57391;51.306;22.680;2022-09-13T14:30:57;19.30;56.06
70051;SHT30;57391;51.306;22.680;2022-09-13T14:33:26;19.29;54.66
70051;SHT30;57391;51.306;22.680;2022-09-13T14:36:15;19.28;55.12
70051;SHT30;57391;51.306;22.680;2022-09-13T14:38:47;19.25;55.49
70051;SHT30;57391;51.306;22.680;2022-09-13T14:41:19;19.21;56.32
70051;SHT30;57391;51.306;22.680;2022-09-13T14:43:48;19.17;56.69
70051;SHT30;57391;51.306;22.680;2022-09-13T14:48:58;19.16;55.74
70051;SHT30;57391;51.306;22.680;2022-09-13T14:54:19;19.19;55.24
70051;SHT30;57391;51.306;22.680;2022-09-13T14:57:17;19.20;54.78
70051;SHT30;57391;51.306;22.680;2022-09-13T14:59:52;19.21;53.82
70051;SHT30;57391;51.306;22.680;2022-09-13T15:02:26;19.23;54.21
70051;SHT30;57391;51.306;22.680;2022-09-13T15:05:02;19.23;55.09
70051;SHT30;57391;51.306;22.680;2022-09-13T15:07:35;19.21;54.74
70051;SHT30;57391;51.306;22.680;2022-09-13T15:10:25;19.20;54.57
70051;SHT30;57391;51.306;22.680;2022-09-13T15:20:30;18.99;55.45
70051;SHT30;57391;51.306;22.680;2022-09-13T15:23:15;18.94;56.10
70051;SHT30;57391;51.306;22.680;2022-09-13T15:26:04;18.88;57.31
70051;SHT30;57391;51.306;22.680;2022-09-13T15:31:19;18.71;59.24
70051;SHT30;57391;51.306;22.680;2022-09-13T15:36:46;18.50;60.11
70051;SHT30;57391;51.306;22.680;2022-09-13T15:39:48;18.44;60.07
70051;SHT30;57391;51.306;22.680;2022-09-13T15:42:45;18.39;60.34
70051;SHT30;57391;51.306;22.680;2022-09-13T15:45:15;18.38;61.06
70051;SHT30;57391;51.306;22.680;2022-09-13T15:47:46;18.34;60.80
70051;SHT30;57391;51.306;22.680;2022-09-13T15:50:26;18.34;60.69
70051;SHT30;57391;51.306;22.680;2022-09-13T15:52:59;18.32;60.96
70051;SHT30;57391;51.306;22.680;2022-09-13T15:55:27;18.31;60.52
70051;SHT30;57391;51.306;22.680;2022-09-13T15:57:58;18.28;60.89
70051;SHT30;57391;51.306;22.680;2022-09-13T16:00:25;18.27;60.70
70051;SHT30;57391;51.306;22.680;2022-09-13T16:02:55;18.25;60.84
70051;SHT30;57391;51.306;22.680;2022-09-13T16:05:22;18.21;61.16
70051;SHT30;57391;51.306;22.680;2022-09-13T16:07:49;18.18;61.27
70051;SHT30;57391;51.306;22.680;2022-09-13T16:10:19;18.16;61.51
70051;SHT30;57391;51.306;22.680;2022-09-13T16:12:48;18.14;61.55
70051;SHT30;57391;51.306;22.680;2022-09-13T16:15:17;18.12;61.71
70051;SHT30;57391;51.306;22.680;2022-09-13T16:17:44;18.09;61.78
70051;SHT30;57391;51.306;22.680;2022-09-13T16:20:15;18.05;61.90
70051;SHT30;57391;51.306;22.680;2022-09-13T16:22:43;18.01;62.06
70051;SHT30;57391;51.306;22.680;2022-09-13T16:25:11;17.95;62.39
70051;SHT30;57391;51.306;22.680;2022-09-13T16:27:41;17.90;62.77
70051;SHT30;57391;51.306;22.680;2022-09-13T16:30:17;17.83;62.95
70051;SHT30;57391;51.306;22.680;2022-09-13T16:32:47;17.80;63.31
70051;SHT30;57391;51.306;22.680;2022-09-13T16:35:15;17.77;63.52
70051;SHT30;57391;51.306;22.680;2022-09-13T16:37:43;17.74;64.12
70051;SHT30;57391;51.306;22.680;2022-09-13T16:40:11;17.69;64.78
70051;SHT30;57391;51.306;22.680;2022-09-13T16:42:39;17.64;65.26
70051;SHT30;57391;51.306;22.680;2022-09-13T16:45:07;17.59;65.58
70051;SHT30;57391;51.306;22.680;2022-09-13T16:47:36;17.54;65.81
70051;SHT30;57391;51.306;22.680;2022-09-13T16:50:04;17.49;65.89
70051;SHT30;57391;51.306;22.680;2022-09-13T16:52:32;17.43;66.01
70051;SHT30;57391;51.306;22.680;2022-09-13T16:55:01;17.38;66.08
70051;SHT30;57391;51.306;22.680;2022-09-13T16:57:30;17.34;66.01
70051;SHT30;57391;51.306;22.680;2022-09-13T16:59:58;17.31;65.82
70051;SHT30;57391;51.306;22.680;2022-09-13T17:02:25;17.28;65.56
70051;SHT30;57391;51.306;22.680;2022-09-13T17:04:53;17.27;65.45
70051;SHT30;57391;51.306;22.680;2022-09-13T17:07:20;17.25;65.30
70051;SHT30;57391;51.306;22.680;2022-09-13T17:09:50;17.24;65.05
70051;SHT30;57391;51.306;22.680;2022-09-13T17:12:17;17.22;64.75
70051;SHT30;57391;51.306;22.680;2022-09-13T17:14:45;17.20;64.57
70051;SHT30;57391;51.306;22.680;2022-09-13T17:17:13;17.16;64.40
70051;SHT30;57391;51.306;22.680;2022-09-13T17:19:42;17.11;64.65
70051;SHT30;57391;51.306;22.680;2022-09-13T17:22:10;17.06;65.04
70051;SHT30;57391;51.306;22.680;2022-09-13T17:24:38;17.01;65.37
70051;SHT30;57391;51.306;22.680;2022-09-13T17:27:06;16.98;65.64
70051;SHT30;57391;51.306;22.680;2022-09-13T17:29:34;16.94;65.63
70051;SHT30;57391;51.306;22.680;2022-09-13T17:32:02;16.90;65.76
70051;SHT30;57391;51.306;22.680;2022-09-13T17:34:31;16.86;65.88
70051;SHT30;57391;51.306;22.680;2022-09-13T17:37:00;16.83;66.12
70051;SHT30;57391;51.306;22.680;2022-09-13T17:39:30;16.79;66.19
70051;SHT30;57391;51.306;22.680;2022-09-13T17:41:57;16.76;66.31
70051;SHT30;57391;51.306;22.680;2022-09-13T17:44:24;16.73;66.51
70051;SHT30;57391;51.306;22.680;2022-09-13T17:46:51;16.69;66.63
70051;SHT30;57391;51.306;22.680;2022-09-13T17:49:18;16.64;66.73
70051;SHT30;57391;51.306;22.680;2022-09-13T17:51:46;16.62;66.82
70051;SHT30;57391;51.306;22.680;2022-09-13T17:54:16;16.60;66.90
70051;SHT30;57391;51.306;22.680;2022-09-13T17:56:43;16.57;67.00
70051;SHT30;57391;51.306;22.680;2022-09-13T17:59:12;16.53;67.14
70051;SHT30;57391;51.306;22.680;2022-09-13T18:01:46;16.49;67.29
70051;SHT30;57391;51.306;22.680;2022-09-13T18:04:20;16.47;67.29
70051;SHT30;57391;51.306;22.680;2022-09-13T18:06:49;16.46;67.25
70051;SHT30;57391;51.306;22.680;2022-09-13T18:09:19;16.45;67.04
70051;SHT30;57391;51.306;22.680;2022-09-13T18:11:47;16.43;66.88
70051;SHT30;57391;51.306;22.680;2022-09-13T18:14:17;16.42;66.74
70051;SHT30;57391;51.306;22.680;2022-09-13T18:16:45;16.41;66.81
70051;SHT30;57391;51.306;22.680;2022-09-13T18:19:18;16.39;66.80
70051;SHT30;57391;51.306;22.680;2022-09-13T18:21:45;16.39;66.52
70051;SHT30;57391;51.306;22.680;2022-09-13T18:24:12;16.39;66.58
70051;SHT30;57391;51.306;22.680;2022-09-13T18:26:40;16.38;66.51
70051;SHT30;57391;51.306;22.680;2022-09-13T18:29:11;16.36;66.61
70051;SHT30;57391;51.306;22.680;2022-09-13T18:31:40;16.35;66.86
70051;SHT30;57391;51.306;22.680;2022-09-13T18:34:10;16.32;67.02
70051;SHT30;57391;51.306;22.680;2022-09-13T18:36:39;16.32;67.21
70051;SHT30;57391;51.306;22.680;2022-09-13T18:39:11;16.29;67.56
70051;SHT30;57391;51.306;22.680;2022-09-13T18:41:44;16.24;67.93
70051;SHT30;57391;51.306;22.680;2022-09-13T18:44:13;16.20;68.10
70051;SHT30;57391;51.306;22.680;2022-09-13T18:46:42;16.17;68.28
70051;SHT30;57391;51.306;22.680;2022-09-13T18:49:10;16.15;68.51
70051;SHT30;57391;51.306;22.680;2022-09-13T18:51:41;16.13;68.77
70051;SHT30;57391;51.306;22.680;2022-09-13T18:54:12;16.09;69.01
70051;SHT30;57391;51.306;22.680;2022-09-13T18:56:43;16.07;69.16
70051;SHT30;57391;51.306;22.680;2022-09-13T18:59:13;16.05;69.41
70051;SHT30;57391;51.306;22.680;2022-09-13T19:01:41;16.02;69.65
70051;SHT30;57391;51.306;22.680;2022-09-13T19:04:16;16.00;69.77
70051;SHT30;57391;51.306;22.680;2022-09-13T19:06:46;15.99;69.85
70051;SHT30;57391;51.306;22.680;2022-09-13T19:09:35;15.99;70.00
70051;SHT30;57391;51.306;22.680;2022-09-13T19:12:02;15.99;70.12
70051;SHT30;57391;51.306;22.680;2022-09-13T19:14:31;15.99;70.28
70051;SHT30;57391;51.306;22.680;2022-09-13T19:16:59;16.00;70.34
70051;SHT30;57391;51.306;22.680;2022-09-13T19:19:26;16.01;70.38
70051;SHT30;57391;51.306;22.680;2022-09-13T19:21:56;16.02;70.52
70051;SHT30;57391;51.306;22.680;2022-09-13T19:24:24;16.03;70.60